Nearby METAR Reports

 

ENRY - Rygge (nor-Afb), Norway
Distance from station: 0 24km
Updated: 21/06/2021 02:50
Light drizzle, Overcast
Light drizzle, Overcast
 Wind from S
Wind: S 24 km/h
Temperature: 14°C
Dew Point: 14°C
Humidity: 100%
Barometer: 1002 hPa
Summary: Light Drizzle
Clouds: Overcast
Visibility: 2 km
Cloud details: Overcast 61 m
2021/06/21 00:50 ENRY 210050Z AUTO 18013KT 2100NDV -DZ VV002 14/14 Q1002
ENTO - Torp (civ/Nor-Af, Norway
Distance from station: W 29km
Updated: 21/06/2021 02:50
Mist, Overcast
Mist, Overcast
 Wind from S
Wind: S 11 km/h
Temperature: 14°C
Dew Point: 14°C
Humidity: 100%
Barometer: 1001 hPa
Summary: Mist
Clouds: Overcast
Visibility: 2 km
Cloud details: Overcast 61 m
2021/06/21 00:50 ENTO 210050Z AUTO 18006KT 1600 BR OVC002/// 14/14 Q1001 REDZ
 
ENSN - Skien/Geiterygge, Norway
Distance from station: W 68km
Updated: 09/11/2015 09:50
NOT Current
Clear
Clear
 Wind from SSW
Wind: SSW 19 km/h, Gust: 41 km/h
Temperature: 7°C
Wind Chill: 4°C
Dew Point: 3°C
Humidity: 76%
Barometer: 1000 hPa
Summary: Clear
Visibility: greater than 10 km
2015/11/09 08:50 ENSN 090850Z 20010G22KT 150V240 CAVOK 07/03 Q1000